Time;durP1;ratioP1;P1;durP2;ratioP2;P2;SDS_P1;SDS_P2;PMS_P1;PMS_P2;Temp;Humidity;BMP_temperature;BMP_pressure;BME280_temperature;BME280_humidity;BME280_pressure;Samples;Min_cycle;Max_cycle;Signal;HPM_P1;HPM_P2
2023/01/30 00:01:30;;;;;;;33.03;21.77;;;5.10;99.90;;;;;;5052680;28;20027;-51
2023/01/30 00:03:56;;;;;;;23.02;15.93;;;5.10;99.90;;;;;;5052656;28;20556;-50
2023/01/30 00:06:22;;;;;;;24.92;17.00;;;5.10;99.90;;;;;;5067215;28;20119;-50
2023/01/30 00:08:48;;;;;;;31.58;21.30;;;5.20;99.90;;;;;;5052471;28;20029;-51
2023/01/30 00:11:16;;;;;;;32.35;21.50;;;5.20;99.90;;;;;;5052511;28;20040;-51
2023/01/30 00:13:43;;;;;;;34.50;24.17;;;5.20;99.90;;;;;;5053129;28;20389;-52
2023/01/30 00:16:09;;;;;;;50.53;33.97;;;5.20;99.90;;;;;;5052688;28;20036;-51
2023/01/30 00:18:39;;;;;;;46.75;30.50;;;5.20;99.90;;;;;;5052337;28;20103;-51
2023/01/30 00:21:07;;;;;;;34.95;23.08;;;5.20;99.90;;;;;;5052641;28;20409;-50
2023/01/30 00:23:34;;;;;;;27.70;19.23;;;5.20;99.90;;;;;;5052442;28;20033;-49
2023/01/30 00:26:00;;;;;;;22.45;14.55;;;5.20;99.90;;;;;;5052602;28;20107;-49
2023/01/30 00:28:26;;;;;;;20.30;14.23;;;5.10;99.90;;;;;;5052527;28;20132;-51
2023/01/30 00:30:53;;;;;;;21.00;15.15;;;5.00;99.90;;;;;;5067007;28;20049;-49
2023/01/30 00:33:20;;;;;;;23.65;15.13;;;4.90;99.90;;;;;;5050895;28;20045;-50
2023/01/30 00:35:47;;;;;;;26.00;18.40;;;4.90;99.90;;;;;;5050045;28;20546;-51
2023/01/30 00:38:13;;;;;;;28.52;17.73;;;4.80;99.90;;;;;;5052250;28;20036;-51
2023/01/30 00:40:39;;;;;;;25.48;16.10;;;4.80;99.90;;;;;;5036414;28;20041;-50
2023/01/30 00:48:37;;;;;;;29.67;20.27;;;4.90;99.90;;;;;;5052457;28;20121;-51
2023/01/30 00:51:03;;;;;;;32.88;16.17;;;4.90;99.90;;;;;;5051899;28;20107;-52
2023/01/30 00:53:29;;;;;;;26.02;16.30;;;4.80;99.90;;;;;;5052163;28;20539;-50
2023/01/30 00:55:55;;;;;;;23.10;15.85;;;4.80;99.90;;;;;;5055507;28;20060;-50
2023/01/30 00:58:21;;;;;;;25.67;16.30;;;4.80;99.90;;;;;;5055677;28;20378;-51
2023/01/30 01:00:48;;;;;;;25.05;16.88;;;4.80;99.90;;;;;;5055470;28;20025;-50
2023/01/30 01:03:14;;;;;;;24.17;16.92;;;4.90;99.90;;;;;;5055548;28;20035;-51
2023/01/30 01:05:40;;;;;;;25.88;16.65;;;4.80;99.90;;;;;;5055397;28;20028;-52
2023/01/30 01:08:06;;;;;;;27.38;17.02;;;4.70;99.90;;;;;;5055227;28;20025;-51
2023/01/30 01:10:32;;;;;;;28.05;17.83;;;4.80;99.90;;;;;;5055192;28;20166;-53
2023/01/30 01:12:57;;;;;;;30.45;20.33;;;4.80;99.90;;;;;;5055704;28;20373;-50
2023/01/30 01:15:24;;;;;;;27.92;18.23;;;4.80;99.90;;;;;;5055371;28;20107;-49
2023/01/30 01:17:51;;;;;;;33.85;21.67;;;4.70;99.90;;;;;;5055169;28;20031;-53
2023/01/30 01:20:18;;;;;;;30.00;20.13;;;4.80;99.90;;;;;;5032664;28;20033;-52
2023/01/30 01:22:44;;;;;;;32.20;21.70;;;4.90;99.90;;;;;;5033078;28;20536;-50
2023/01/30 01:25:10;;;;;;;29.83;19.85;;;4.90;99.90;;;;;;5032476;28;20044;-49
2023/01/30 01:27:36;;;;;;;30.10;19.60;;;5.00;99.90;;;;;;5054278;28;20745;-51
2023/01/30 01:30:03;;;;;;;27.50;19.58;;;5.10;99.90;;;;;;5038627;28;20141;-50
2023/01/30 01:32:28;;;;;;;30.27;20.98;;;5.10;99.90;;;;;;5037500;28;20053;-49
2023/01/30 01:34:54;;;;;;;26.52;19.10;;;5.20;99.90;;;;;;5037761;28;20086;-55
2023/01/30 01:37:20;;;;;;;29.77;19.67;;;5.20;99.90;;;;;;5038375;28;20036;-61
2023/01/30 01:42:33;;;;;;;26.35;16.55;;;5.10;99.90;;;;;;5032898;28;20429;-51
2023/01/30 01:45:10;;;;;;;26.70;18.88;;;5.00;99.90;;;;;;5016181;28;20128;-51
2023/01/30 01:47:39;;;;;;;29.45;19.35;;;4.90;99.90;;;;;;5032683;28;20200;-49
2023/01/30 01:50:09;;;;;;;30.88;21.77;;;5.00;99.90;;;;;;5032660;28;20061;-49
2023/01/30 01:52:35;;;;;;;26.73;17.42;;;5.10;99.90;;;;;;5069173;28;20045;-51
2023/01/30 01:55:05;;;;;;;25.90;18.17;;;5.20;99.90;;;;;;5054910;28;20124;-51
2023/01/30 01:57:38;;;;;;;29.13;17.88;;;5.20;99.90;;;;;;5054624;28;20456;-48
2023/01/30 02:00:11;;;;;;;25.85;16.02;;;4.80;99.90;;;;;;5054565;28;20028;-51
2023/01/30 02:02:45;;;;;;;25.05;17.13;;;4.80;99.90;;;;;;5068579;28;20406;-52
2023/01/30 02:05:13;;;;;;;25.83;18.10;;;4.90;99.90;;;;;;5054184;28;20029;-49
2023/01/30 02:07:51;;;;;;;28.08;18.25;;;5.00;99.90;;;;;;5035934;28;20397;-51
2023/01/30 02:10:22;;;;;;;25.25;16.42;;;5.10;99.90;;;;;;5054186;28;20044;-50
2023/01/30 02:12:50;;;;;;;33.17;19.38;;;5.00;99.90;;;;;;5054178;28;20063;-50
2023/01/30 02:15:17;;;;;;;44.35;26.52;;;5.00;99.90;;;;;;5035717;28;20370;-49
2023/01/30 02:17:42;;;;;;;37.47;23.17;;;5.10;99.90;;;;;;5071887;28;20032;-52
2023/01/30 02:20:35;;;;;;;24.10;17.50;;;5.20;99.90;;;;;;5071883;28;20039;-52
2023/01/30 02:23:34;;;;;;;20.98;15.70;;;5.20;99.90;;;;;;5038165;28;20032;-49
2023/01/30 02:26:25;;;;;;;21.08;14.88;;;5.10;99.90;;;;;;5071841;28;20083;-52
2023/01/30 02:29:10;;;;;;;25.00;16.60;;;5.20;99.90;;;;;;5071612;28;20040;-50
2023/01/30 02:31:44;;;;;;;22.48;14.93;;;5.10;99.90;;;;;;5071372;28;20032;-51
2023/01/30 02:34:34;;;;;;;20.50;14.13;;;5.10;99.90;;;;;;5038220;28;20036;-52
2023/01/30 02:37:27;;;;;;;23.30;15.73;;;4.70;99.90;;;;;;5071485;28;20059;-53
2023/01/30 02:40:08;;;;;;;20.55;13.90;;;4.70;99.90;;;;;;5071590;28;20127;-51
2023/01/30 02:42:42;;;;;;;18.42;12.88;;;4.50;99.90;;;;;;5038062;28;20516;-49
2023/01/30 02:45:23;;;;;;;18.13;12.45;;;4.40;99.90;;;;;;5071601;28;20052;-50
2023/01/30 02:48:12;;;;;;;24.65;13.63;;;4.50;99.90;;;;;;5069251;28;20056;-49
2023/01/30 02:51:15;;;;;;;30.42;18.02;;;4.70;99.90;;;;;;5053632;28;20107;-49
2023/01/30 02:53:41;;;;;;;20.35;12.63;;;4.80;99.90;;;;;;5053551;28;20035;-52
2023/01/30 02:56:07;;;;;;;17.98;13.18;;;4.90;99.90;;;;;;5053588;28;20028;-53
2023/01/30 02:58:41;;;;;;;16.80;12.07;;;5.00;99.90;;;;;;5054817;28;20025;-51
2023/01/30 03:01:14;;;;;;;15.48;11.52;;;5.00;99.90;;;;;;5041246;28;20158;-52
2023/01/30 03:04:05;;;;;;;18.73;12.55;;;4.90;99.90;;;;;;5058975;28;20445;-54
2023/01/30 03:07:02;;;;;;;17.40;12.63;;;5.00;99.90;;;;;;5058465;28;20033;-53
2023/01/30 03:10:00;;;;;;;15.63;12.40;;;5.00;99.90;;;;;;5055417;28;20366;-52
2023/01/30 03:12:34;;;;;;;20.42;14.65;;;5.10;99.90;;;;;;5055065;28;20028;-51
2023/01/30 03:15:37;;;;;;;17.67;12.70;;;4.80;99.90;;;;;;5054955;28;20091;-53
2023/01/30 03:18:03;;;;;;;15.38;12.32;;;4.90;99.90;;;;;;5052940;28;20029;-49
2023/01/30 03:20:35;;;;;;;20.40;13.95;;;5.10;99.90;;;;;;5084822;28;20134;-50
2023/01/30 03:23:01;;;;;;;16.23;12.77;;;5.20;99.90;;;;;;5053277;28;20025;-51
2023/01/30 03:25:26;;;;;;;16.35;12.57;;;5.20;99.90;;;;;;5053362;28;20037;-53
2023/01/30 03:27:54;;;;;;;16.63;12.20;;;5.30;99.90;;;;;;5084625;28;20040;-52
2023/01/30 03:30:20;;;;;;;16.92;13.07;;;5.20;99.90;;;;;;5053165;28;20389;-50
2023/01/30 03:32:46;;;;;;;17.50;13.20;;;5.20;99.90;;;;;;5052819;28;20052;-50
2023/01/30 03:35:12;;;;;;;15.80;12.20;;;5.30;99.90;;;;;;5053521;28;20036;-52
2023/01/30 03:37:38;;;;;;;14.88;11.20;;;5.20;99.90;;;;;;5051079;28;20174;-50
2023/01/30 03:40:04;;;;;;;13.68;10.70;;;5.20;99.90;;;;;;5052862;28;20021;-52
2023/01/30 03:42:30;;;;;;;13.48;11.23;;;5.20;99.90;;;;;;5067243;28;20115;-49
2023/01/30 03:44:56;;;;;;;14.18;10.90;;;5.20;99.90;;;;;;5052834;28;20021;-49
2023/01/30 03:47:21;;;;;;;15.13;11.32;;;5.20;99.90;;;;;;5050067;28;20059;-48
2023/01/30 03:49:47;;;;;;;15.45;10.82;;;5.20;99.90;;;;;;5080786;28;20049;-53
2023/01/30 03:52:13;;;;;;;14.20;10.85;;;5.10;99.90;;;;;;5053101;28;20457;-53
2023/01/30 03:54:38;;;;;;;14.98;11.55;;;5.10;99.90;;;;;;5052709;28;20115;-51
2023/01/30 03:57:04;;;;;;;16.13;11.55;;;5.10;99.90;;;;;;5053076;28;20029;-50
2023/01/30 03:59:30;;;;;;;13.63;10.55;;;5.20;99.90;;;;;;5067329;28;20036;-53
2023/01/30 04:01:56;;;;;;;13.85;11.15;;;5.20;99.90;;;;;;5052939;28;20064;-48
2023/01/30 04:04:22;;;;;;;13.38;10.05;;;5.20;99.90;;;;;;5052454;28;20040;-52
2023/01/30 04:06:48;;;;;;;23.10;12.93;;;5.20;99.90;;;;;;5052921;28;20033;-50
2023/01/30 04:09:14;;;;;;;20.45;11.95;;;5.30;99.90;;;;;;5084276;28;20067;-51
2023/01/30 04:11:39;;;;;;;15.63;11.05;;;5.30;99.90;;;;;;5084210;28;20049;-52
2023/01/30 04:14:05;;;;;;;15.50;11.82;;;5.30;99.90;;;;;;5084210;28;20044;-50
2023/01/30 04:16:31;;;;;;;17.52;11.90;;;5.30;99.90;;;;;;5052563;28;20175;-51
2023/01/30 04:18:56;;;;;;;15.93;11.38;;;5.30;99.90;;;;;;5033876;28;20500;-50
2023/01/30 04:21:22;;;;;;;18.48;11.50;;;5.30;99.90;;;;;;5052888;28;20112;-49
2023/01/30 04:23:48;;;;;;;18.20;11.65;;;5.20;99.90;;;;;;5083785;28;20040;-49
2023/01/30 04:26:14;;;;;;;14.80;11.55;;;5.30;99.90;;;;;;5052658;28;20140;-52
2023/01/30 04:28:40;;;;;;;18.70;12.70;;;5.30;99.90;;;;;;5053786;28;20062;-51
2023/01/30 04:31:06;;;;;;;20.52;11.60;;;5.20;99.90;;;;;;5056798;28;20055;-51
2023/01/30 04:33:35;;;;;;;14.20;11.10;;;5.20;99.90;;;;;;5054342;28;20053;-51
2023/01/30 04:36:03;;;;;;;17.58;11.57;;;5.10;99.90;;;;;;5056327;28;20047;-53
2023/01/30 04:38:30;;;;;;;19.40;12.05;;;5.10;99.90;;;;;;5037852;28;20055;-52
2023/01/30 04:40:56;;;;;;;17.20;12.23;;;4.90;99.90;;;;;;5056317;28;20076;-53
2023/01/30 04:43:24;;;;;;;17.02;11.25;;;5.00;99.90;;;;;;5056118;28;20491;-48
2023/01/30 04:45:50;;;;;;;14.55;11.63;;;5.00;99.90;;;;;;5056199;28;20029;-51
2023/01/30 04:48:18;;;;;;;14.30;10.95;;;5.00;99.90;;;;;;5056145;28;20029;-50
2023/01/30 04:50:47;;;;;;;15.93;11.43;;;5.00;99.90;;;;;;5055928;28;20033;-51
2023/01/30 04:53:13;;;;;;;19.40;15.07;;;5.00;99.90;;;;;;5056078;28;20029;-53
2023/01/30 04:55:38;;;;;;;18.55;13.38;;;5.10;99.90;;;;;;5055803;28;20032;-53
2023/01/30 04:58:04;;;;;;;24.05;17.92;;;5.00;99.90;;;;;;5056255;28;20033;-53
2023/01/30 05:00:30;;;;;;;38.20;27.98;;;4.90;99.90;;;;;;5087367;28;20401;-52
2023/01/30 05:02:56;;;;;;;41.70;34.90;;;4.90;99.90;;;;;;5055671;28;20089;-52
2023/01/30 05:05:23;;;;;;;29.10;24.63;;;4.90;99.90;;;;;;5055663;28;20036;-49
2023/01/30 05:07:49;;;;;;;18.17;12.70;;;4.90;99.90;;;;;;5055477;28;20163;-49
2023/01/30 05:10:15;;;;;;;16.30;11.85;;;5.00;99.90;;;;;;5055686;28;20123;-52
2023/01/30 05:12:41;;;;;;;17.88;12.55;;;4.90;99.90;;;;;;5070383;28;20049;-51
2023/01/30 05:15:07;;;;;;;17.30;12.57;;;5.10;99.90;;;;;;5055682;28;20029;-50
2023/01/30 05:17:33;;;;;;;19.63;12.50;;;5.10;99.90;;;;;;5070203;28;20033;-53
2023/01/30 05:19:59;;;;;;;16.48;12.35;;;5.10;99.90;;;;;;5055464;28;20090;-53
2023/01/30 05:22:25;;;;;;;16.60;12.25;;;5.20;99.90;;;;;;5053674;28;20037;-50
2023/01/30 05:24:51;;;;;;;16.08;11.88;;;5.10;99.90;;;;;;5055185;28;20500;-53
2023/01/30 05:27:17;;;;;;;18.75;11.95;;;5.10;99.90;;;;;;5087008;28;20037;-52
2023/01/30 05:29:43;;;;;;;15.00;11.57;;;5.00;99.90;;;;;;5055596;28;20048;-50
2023/01/30 05:32:16;;;;;;;17.60;13.40;;;5.10;99.90;;;;;;5054832;28;20041;-51
2023/01/30 05:34:41;;;;;;;19.20;12.48;;;5.00;99.90;;;;;;5069427;28;20029;-52
2023/01/30 05:37:08;;;;;;;22.30;12.18;;;4.90;99.90;;;;;;5055031;28;20075;-51
2023/01/30 05:39:33;;;;;;;19.23;12.80;;;4.90;99.90;;;;;;5054897;28;20025;-52
2023/01/30 05:41:59;;;;;;;18.08;13.00;;;4.90;99.90;;;;;;5052657;28;20473;-53
2023/01/30 05:44:25;;;;;;;18.75;13.55;;;5.00;99.90;;;;;;5054929;28;20029;-49
2023/01/30 05:46:50;;;;;;;17.75;11.75;;;5.10;99.90;;;;;;5054894;28;20472;-53
2023/01/30 05:49:16;;;;;;;19.25;13.35;;;5.00;99.90;;;;;;5053222;28;20538;-51
2023/01/30 05:51:42;;;;;;;18.30;14.25;;;5.10;99.90;;;;;;5055044;28;20485;-50
2023/01/30 05:54:08;;;;;;;15.93;11.80;;;5.00;99.90;;;;;;5054575;28;20025;-49
2023/01/30 05:56:33;;;;;;;14.25;10.70;;;5.00;99.90;;;;;;5054676;28;20025;-51
2023/01/30 05:59:01;;;;;;;18.02;11.65;;;5.00;99.90;;;;;;5065460;28;20044;-51
2023/01/30 06:01:28;;;;;;;15.23;11.80;;;4.90;99.90;;;;;;5054178;28;20040;-48
2023/01/30 06:03:54;;;;;;;19.02;12.68;;;4.90;99.90;;;;;;5054701;28;20021;-51
2023/01/30 06:06:21;;;;;;;18.08;11.60;;;5.00;99.90;;;;;;5052688;28;20037;-49
2023/01/30 06:08:47;;;;;;;16.42;12.30;;;5.10;99.90;;;;;;5054672;28;20033;-50
2023/01/30 06:11:15;;;;;;;17.30;12.20;;;5.00;99.90;;;;;;5054451;28;20032;-50
2023/01/30 06:13:42;;;;;;;16.85;11.30;;;5.00;99.90;;;;;;5054560;28;20384;-51
2023/01/30 06:16:10;;;;;;;18.48;12.80;;;5.00;99.90;;;;;;5054933;28;20112;-50
2023/01/30 06:18:37;;;;;;;21.13;12.68;;;5.10;99.90;;;;;;5054367;28;20087;-52
2023/01/30 06:21:03;;;;;;;15.88;12.27;;;5.10;99.90;;;;;;5054064;28;20354;-49
2023/01/30 06:23:29;;;;;;;19.08;13.57;;;5.10;99.90;;;;;;5054522;28;20028;-50
2023/01/30 06:25:55;;;;;;;30.65;24.02;;;5.10;99.90;;;;;;5053686;28;20025;-49
2023/01/30 06:28:22;;;;;;;24.33;16.27;;;5.10;99.90;;;;;;5054053;28;20491;-52
2023/01/30 06:30:48;;;;;;;15.60;12.20;;;5.10;99.90;;;;;;5054122;28;20071;-52
2023/01/30 06:33:14;;;;;;;38.30;26.80;;;5.10;99.90;;;;;;5054118;28;20041;-52
2023/01/30 06:35:41;;;;;;;105.97;62.45;;;5.10;99.90;;;;;;5068722;28;20136;-53
2023/01/30 06:38:13;;;;;;;99.22;60.10;;;5.10;99.90;;;;;;5053836;28;20033;-49
2023/01/30 06:40:39;;;;;;;55.92;32.30;;;5.00;99.90;;;;;;5053933;28;20476;-50
2023/01/30 06:43:05;;;;;;;28.55;20.05;;;5.10;99.90;;;;;;5054049;28;20060;-51
2023/01/30 06:45:31;;;;;;;19.80;14.75;;;5.20;99.90;;;;;;5052606;28;20357;-51
2023/01/30 06:47:57;;;;;;;19.48;13.68;;;5.20;99.90;;;;;;5051748;28;20033;-48
2023/01/30 06:50:25;;;;;;;34.00;22.38;;;5.20;99.90;;;;;;5035124;28;20496;-54
2023/01/30 06:52:52;;;;;;;40.38;23.35;;;5.10;99.90;;;;;;5034163;28;20041;-53
2023/01/30 06:55:20;;;;;;;29.75;19.35;;;5.10;99.90;;;;;;5051246;28;20132;-53
2023/01/30 06:57:46;;;;;;;29.63;22.40;;;5.10;99.90;;;;;;5051696;28;20028;-53
2023/01/30 07:00:17;;;;;;;23.17;16.73;;;5.30;99.90;;;;;;5051289;28;20041;-53
2023/01/30 07:02:43;;;;;;;23.08;15.80;;;5.50;99.90;;;;;;5034876;28;20033;-53
2023/01/30 07:05:09;;;;;;;20.25;14.48;;;5.50;99.90;;;;;;5034426;28;20040;-51
2023/01/30 07:07:35;;;;;;;17.48;13.45;;;5.50;99.90;;;;;;5051345;28;20128;-52
2023/01/30 07:10:02;;;;;;;18.27;13.45;;;5.70;99.90;;;;;;5051027;28;20079;-50
2023/01/30 07:12:28;;;;;;;19.45;14.25;;;5.80;99.90;;;;;;5050919;28;20041;-50
2023/01/30 07:14:54;;;;;;;24.05;15.80;;;5.80;99.90;;;;;;5051062;28;20094;-50
2023/01/30 07:17:21;;;;;;;20.90;16.92;;;5.80;99.90;;;;;;5050091;28;20041;-50
2023/01/30 07:19:47;;;;;;;29.40;17.40;;;6.30;99.90;;;;;;5048243;28;20120;-51
2023/01/30 07:22:13;;;;;;;24.88;17.52;;;6.60;99.90;;;;;;5050395;28;20115;-53
2023/01/30 07:24:39;;;;;;;22.88;16.00;;;6.60;99.90;;;;;;5001302;28;20036;-51
2023/01/30 07:27:10;;;;;;;21.63;15.35;;;6.70;99.90;;;;;;5048091;28;20033;-52
2023/01/30 07:29:36;;;;;;;23.90;15.07;;;;;;;;;;5051615;28;20033;-49
2023/01/30 07:32:03;;;;;;;35.22;21.75;;;6.70;99.90;;;;;;5051052;28;20045;-51
2023/01/30 07:34:29;;;;;;;49.90;30.50;;;6.80;99.90;;;;;;5053231;28;20029;-52
2023/01/30 07:36:55;;;;;;;31.00;18.95;;;7.30;99.90;;;;;;5018176;28;20368;-52
2023/01/30 07:39:20;;;;;;;27.30;17.67;;;7.40;99.90;;;;;;5053445;28;20029;-52
2023/01/30 07:41:46;;;;;;;57.75;35.95;;;7.50;99.90;;;;;;5015499;28;20033;-52
2023/01/30 07:44:13;;;;;;;78.68;43.30;;;7.50;99.90;;;;;;5052086;28;20086;-51
2023/01/30 07:46:39;;;;;;;51.40;32.88;;;7.70;99.90;;;;;;5052116;28;20130;-52
2023/01/30 07:49:05;;;;;;;71.13;40.80;;;7.80;99.90;;;;;;5049595;28;20041;-51
2023/01/30 07:51:31;;;;;;;56.17;35.20;;;7.90;99.90;;;;;;5055040;28;20029;-53
2023/01/30 07:53:57;;;;;;;20.42;15.45;;;8.50;99.90;;;;;;5052754;28;20112;-53
2023/01/30 07:56:23;;;;;;;23.13;15.05;;;8.50;99.90;;;;;;5033446;28;20599;-52
2023/01/30 07:58:50;;;;;;;21.30;13.43;;;8.30;99.90;;;;;;5052377;28;20531;-52
2023/01/30 08:01:16;;;;;;;18.55;12.07;;;8.10;99.90;;;;;;5049179;28;20037;-50
2023/01/30 08:03:44;;;;;;;20.48;15.07;;;8.10;99.90;;;;;;5053896;28;20033;-50
2023/01/30 08:06:12;;;;;;;21.58;15.55;;;8.00;99.90;;;;;;5056744;28;20048;-51
2023/01/30 08:08:39;;;;;;;21.80;15.77;;;8.00;99.90;;;;;;5056556;28;20116;-54
2023/01/30 08:11:04;;;;;;;27.15;21.08;;;8.10;99.90;;;;;;5053483;28;20031;-52
2023/01/30 08:13:30;;;;;;;28.10;19.73;;;8.50;99.90;;;;;;5069611;28;20041;-52
2023/01/30 08:16:05;;;;;;;25.70;17.98;;;8.60;99.90;;;;;;5073623;28;20037;-49
2023/01/30 08:18:32;;;;;;;38.28;24.70;;;8.50;99.90;;;;;;5016529;28;20037;-50
2023/01/30 08:21:03;;;;;;;16.15;11.85;;;8.80;99.90;;;;;;5033734;28;20034;-54
2023/01/30 08:23:30;;;;;;;11.35;9.50;;;8.80;98.90;;;;;;5033342;28;20080;-51
2023/01/30 08:25:57;;;;;;;14.43;11.55;;;8.80;98.10;;;;;;5033334;28;20048;-50
2023/01/30 08:28:23;;;;;;;15.02;10.63;;;10.10;99.80;;;;;;5033350;28;20041;-51
2023/01/30 08:30:51;;;;;;;15.73;11.70;;;10.90;97.60;;;;;;5033853;28;20554;-49
2023/01/30 08:33:17;;;;;;;17.50;13.35;;;;;;;;;;5032851;28;20049;-49
2023/01/30 08:35:43;;;;;;;18.98;13.82;;;10.70;97.90;;;;;;5054285;28;20029;-51
2023/01/30 08:38:09;;;;;;;19.05;15.18;;;10.10;97.30;;;;;;5035950;28;20041;-50
2023/01/30 08:40:35;;;;;;;23.35;14.30;;;10.80;98.50;;;;;;5011640;28;20045;-54
2023/01/30 08:43:01;;;;;;;16.92;13.18;;;;;;;;;;5034008;28;20032;-54
2023/01/30 08:45:27;;;;;;;16.95;13.38;;;11.60;94.80;;;;;;5034012;28;20033;-54
2023/01/30 08:47:57;;;;;;;19.15;15.13;;;11.50;95.70;;;;;;5033855;28;20029;-51
2023/01/30 08:50:23;;;;;;;17.30;13.57;;;12.10;95.70;;;;;;5035884;28;20045;-54
2023/01/30 08:52:48;;;;;;;14.80;12.40;;;12.30;99.90;;;;;;5036009;28;20473;-50
2023/01/30 08:55:14;;;;;;;17.02;13.95;;;12.30;99.80;;;;;;5036364;28;20030;-56
2023/01/30 08:57:40;;;;;;;14.50;11.13;;;12.40;93.50;;;;;;5036097;28;20087;-54
2023/01/30 09:00:07;;;;;;;13.65;11.00;;;;;;;;;;5052961;28;20043;-51
2023/01/30 09:02:34;;;;;;;14.32;12.40;;;;;;;;;;5055319;28;20040;-54
2023/01/30 09:04:59;;;;;;;14.60;12.60;;;9.40;94.30;;;;;;5055233;28;20029;-54
2023/01/30 09:07:27;;;;;;;16.23;12.18;;;9.70;94.00;;;;;;5055451;28;20025;-55
2023/01/30 09:09:53;;;;;;;14.65;11.90;;;;;;;;;;5055097;28;20048;-55
2023/01/30 09:12:20;;;;;;;12.68;10.75;;;;;;;;;;5073033;28;20131;-51
2023/01/30 09:14:46;;;;;;;15.18;12.77;;;;;;;;;;5054674;28;20476;-52
2023/01/30 09:17:12;;;;;;;29.73;21.85;;;;;;;;;;5073391;28;20048;-51
2023/01/30 09:19:38;;;;;;;40.25;21.13;;;;;;;;;;5056511;28;20459;-52
2023/01/30 09:22:06;;;;;;;37.95;23.15;;;16.00;99.90;;;;;;5073383;28;20041;-51
2023/01/30 09:24:32;;;;;;;13.40;11.80;;;15.90;94.70;;;;;;5073350;28;20142;-55
2023/01/30 09:26:58;;;;;;;16.15;13.85;;;13.50;88.30;;;;;;5073170;28;20431;-51
2023/01/30 09:29:25;;;;;;;15.52;13.80;;;;;;;;;;5073200;28;20483;-53
2023/01/30 09:31:51;;;;;;;14.98;13.32;;;;;;;;;;5072750;28;20041;-54
2023/01/30 09:34:17;;;;;;;16.00;14.27;;;17.00;97.20;;;;;;5073256;28;20041;-52
2023/01/30 09:36:43;;;;;;;14.18;11.30;;;17.60;86.20;;;;;;5072906;28;20032;-55
2023/01/30 09:39:08;;;;;;;12.60;11.30;;;16.30;80.80;;;;;;5073085;28;20078;-52
2023/01/30 09:42:15;;;;;;;14.63;13.02;;;17.10;82.50;;;;;;5038270;28;20063;-55
2023/01/30 09:45:17;;;;;;;14.75;13.25;;;14.20;83.10;;;;;;5032196;28;20040;-50
2023/01/30 09:47:59;;;;;;;14.57;12.90;;;;;;;;;;5036832;28;20045;-53
2023/01/30 09:50:52;;;;;;;15.73;14.02;;;16.00;83.50;;;;;;5044132;28;20549;-51
2023/01/30 09:53:23;;;;;;;14.93;13.30;;;;;;;;;;5032889;28;20064;-52
2023/01/30 09:55:49;;;;;;;14.18;12.88;;;15.90;99.90;;;;;;5032382;28;20075;-52
2023/01/30 09:58:24;;;;;;;16.30;13.85;;;15.20;82.00;;;;;;5032533;28;20030;-53
2023/01/30 10:01:01;;;;;;;17.02;14.30;;;14.00;83.70;;;;;;5032378;28;20509;-56
2023/01/30 10:03:29;;;;;;;16.48;14.73;;;;;;;;;;5032668;28;20367;-51
2023/01/30 10:06:01;;;;;;;16.15;14.43;;;16.10;99.90;;;;;;5029840;28;20490;-54
2023/01/30 10:08:45;;;;;;;16.05;14.35;;;16.40;82.40;;;;;;5032443;28;20037;-54
2023/01/30 10:11:23;;;;;;;18.02;16.13;;;16.40;83.80;;;;;;5032012;28;20370;-55
2023/01/30 10:14:01;;;;;;;17.15;15.30;;;15.60;81.00;;;;;;5043295;28;20519;-51
2023/01/30 10:16:46;;;;;;;15.93;12.25;;;17.70;79.30;;;;;;5037264;28;20113;-52
2023/01/30 10:20:09;;;;;;;18.00;13.50;;;17.60;78.50;;;;;;5041607;28;20033;-53
2023/01/30 10:23:09;;;;;;;16.13;12.70;;;16.40;78.30;;;;;;5051471;28;20468;-54
2023/01/30 10:25:46;;;;;;;25.92;16.48;;;;;;;;;;5052032;28;20025;-56
2023/01/30 10:28:12;;;;;;;19.45;13.77;;;;;;;;;;5051034;28;20036;-54
2023/01/30 10:30:38;;;;;;;16.88;13.32;;;14.90;77.80;;;;;;5051360;28;20083;-55
2023/01/30 10:33:17;;;;;;;21.90;14.20;;;14.40;79.50;;;;;;5051671;28;20148;-54
2023/01/30 10:35:43;;;;;;;22.30;16.27;;;13.90;80.30;;;;;;5051822;28;20516;-53
2023/01/30 10:38:26;;;;;;;21.42;15.52;;;;;;;;;;5051710;28;20041;-56
2023/01/30 10:41:23;;;;;;;34.67;20.73;;;14.90;83.40;;;;;;4985766;28;20420;-51
2023/01/30 10:44:03;;;;;;;22.45;16.88;;;15.40;81.60;;;;;;5051661;28;20045;-53
2023/01/30 10:46:29;;;;;;;19.20;14.63;;;;;;;;;;5050296;28;20468;-52
2023/01/30 10:48:58;;;;;;;34.85;21.83;;;15.20;80.60;;;;;;5050588;28;20508;-50
2023/01/30 10:51:38;;;;;;;20.63;15.20;;;15.60;87.40;;;;;;5051100;28;20794;-52
2023/01/30 10:54:40;;;;;;;24.75;16.83;;;15.40;80.50;;;;;;5035064;28;20112;-50
2023/01/30 10:57:23;;;;;;;23.00;15.02;;;;;;;;;;4964936;28;20057;-50
2023/01/30 10:59:54;;;;;;;19.88;14.00;;;16.80;94.10;;;;;;4986198;28;20034;-50
2023/01/30 11:02:41;;;;;;;54.08;28.90;;;16.60;93.00;;;;;;4971602;28;20042;-51
2023/01/30 11:05:32;;;;;;;65.13;27.48;;;17.00;93.80;;;;;;4961336;28;20039;-51
2023/01/30 11:07:58;;;;;;;28.38;21.10;;;17.00;91.30;;;;;;4968072;28;20050;-51
2023/01/30 11:10:26;;;;;;;29.35;20.10;;;15.60;80.50;;;;;;4949731;28;20058;-51
2023/01/30 11:13:20;;;;;;;20.05;17.27;;;16.40;79.80;;;;;;4971667;28;20057;-51
2023/01/30 11:15:49;;;;;;;20.20;15.98;;;13.30;81.10;;;;;;4956254;28;20467;-49
2023/01/30 11:18:17;;;;;;;22.20;16.67;;;12.10;82.80;;;;;;4972469;28;20027;-51
2023/01/30 11:20:45;;;;;;;26.50;19.30;;;;;;;;;;4971952;28;20045;-50
2023/01/30 11:23:31;;;;;;;20.80;14.98;;;11.60;85.30;;;;;;4972333;28;20121;-50
2023/01/30 11:25:58;;;;;;;22.42;16.38;;;12.60;82.50;;;;;;4972009;28;20439;-50
2023/01/30 11:28:25;;;;;;;22.30;16.83;;;13.40;82.00;;;;;;4972321;28;20114;-49
2023/01/30 11:30:59;;;;;;;22.38;15.98;;;14.30;82.60;;;;;;4972183;28;20054;-49
2023/01/30 11:33:36;;;;;;;31.15;19.48;;;15.00;81.00;;;;;;4985552;28;20076;-50
2023/01/30 11:36:06;;;;;;;23.83;16.10;;;15.80;80.50;;;;;;5033114;28;20405;-51
2023/01/30 11:38:34;;;;;;;21.52;15.40;;;14.40;81.30;;;;;;5032495;28;20037;-51
2023/01/30 11:41:08;;;;;;;20.48;15.68;;;12.70;83.30;;;;;;5033121;28;20438;-49
2023/01/30 11:43:38;;;;;;;18.02;14.55;;;13.50;84.00;;;;;;5031065;28;20045;-51
2023/01/30 11:46:06;;;;;;;18.30;13.48;;;12.40;83.50;;;;;;5030841;28;20046;-51
2023/01/30 11:48:34;;;;;;;15.50;13.23;;;;;;;;;;5030814;28;20604;-51
2023/01/30 11:51:03;;;;;;;19.80;14.05;;;;;;;;;;5030907;28;20041;-49
2023/01/30 11:53:40;;;;;;;37.13;26.10;;;10.00;90.30;;;;;;5028077;28;20492;-49
2023/01/30 11:56:20;;;;;;;17.50;12.70;;;9.80;87.80;;;;;;5030849;28;20041;-50
2023/01/30 11:59:11;;;;;;;20.65;14.27;;;9.20;89.00;;;;;;5014060;28;20044;-51
2023/01/30 12:01:37;;;;;;;27.38;22.00;;;;;;;;;;5014041;28;20050;-50
2023/01/30 12:04:08;;;;;;;15.10;11.32;;;10.60;95.00;;;;;;5042966;28;20033;-51
2023/01/30 12:06:35;;;;;;;16.42;10.90;;;;;;;;;;5050413;28;20138;-49
2023/01/30 12:09:02;;;;;;;18.13;12.07;;;8.00;96.70;;;;;;5050554;28;20037;-50
2023/01/30 12:11:45;;;;;;;19.63;13.95;;;9.00;90.70;;;;;;5050425;28;20064;-50
2023/01/30 12:14:48;;;;;;;22.23;14.52;;;9.20;91.30;;;;;;5050669;28;20179;-50
2023/01/30 12:17:33;;;;;;;20.50;14.45;;;9.70;91.20;;;;;;5051736;28;20400;-50
2023/01/30 12:20:18;;;;;;;19.80;12.65;;;10.00;90.40;;;;;;5050759;28;20041;-51
2023/01/30 12:22:58;;;;;;;17.70;13.20;;;9.30;90.80;;;;;;5031967;28;20045;-51
2023/01/30 12:25:33;;;;;;;17.45;13.05;;;9.90;91.00;;;;;;5052400;28;20075;-51
2023/01/30 12:28:09;;;;;;;18.80;11.75;;;9.70;90.60;;;;;;5052748;28;20401;-49
2023/01/30 12:30:58;;;;;;;18.60;13.25;;;9.40;90.70;;;;;;5051738;28;20094;-49
2023/01/30 12:33:29;;;;;;;17.17;10.38;;;10.00;90.80;;;;;;5047100;28;20395;-50
2023/01/30 12:36:25;;;;;;;29.75;15.95;;;9.40;90.30;;;;;;5052250;28;20542;-50
2023/01/30 12:38:55;;;;;;;27.73;16.80;;;11.20;90.80;;;;;;5010544;28;20034;-49
2023/01/30 12:41:33;;;;;;;29.17;18.48;;;12.50;90.00;;;;;;5010463;28;20042;-51
2023/01/30 12:44:18;;;;;;;20.60;15.10;;;13.20;88.00;;;;;;5010594;28;20458;-50
2023/01/30 12:46:59;;;;;;;24.55;15.10;;;11.80;89.20;;;;;;5010482;28;20030;-52
2023/01/30 12:50:00;;;;;;;19.50;12.90;;;12.60;87.90;;;;;;5011439;28;20069;-50
2023/01/30 12:52:41;;;;;;;37.40;16.40;;;;;;;;;;4955667;29;20051;-50
2023/01/30 12:55:26;;;;;;;29.45;20.38;;;13.20;84.60;;;;;;4955767;29;20126;-50
2023/01/30 12:58:08;;;;;;;29.52;16.55;;;12.40;85.10;;;;;;4955770;29;20043;-49
2023/01/30 13:00:52;;;;;;;22.65;14.95;;;11.90;85.30;;;;;;4954386;28;20492;-48
2023/01/30 13:03:34;;;;;;;23.13;14.45;;;9.90;87.70;;;;;;4953105;28;20075;-50
2023/01/30 13:06:14;;;;;;;20.25;13.32;;;9.20;90.30;;;;;;4955050;29;20495;-51
2023/01/30 13:08:54;;;;;;;22.13;12.57;;;;;;;;;;4953254;28;20157;-50
2023/01/30 13:11:27;;;;;;;21.17;14.23;;;8.40;99.90;;;;;;4955472;29;20199;-50